Time;durP1;ratioP1;P1;durP2;ratioP2;P2;SDS_P1;SDS_P2;PMS_P1;PMS_P2;Temp;Humidity;BMP_temperature;BMP_pressure;BME280_temperature;BME280_humidity;BME280_pressure;Samples;Min_cycle;Max_cycle;Signal;HPM_P1;HPM_P2
2022/01/12 00:01:54;;;;;;;4.03;3.50;;;18.30;42.50;;;;;;5116385;28;20020;-56
2022/01/12 00:04:21;;;;;;;4.05;3.40;;;18.30;42.30;;;;;;5115033;28;20079;-56
2022/01/12 00:06:47;;;;;;;3.72;3.38;;;18.40;42.30;;;;;;5116244;28;20786;-56
2022/01/12 00:09:12;;;;;;;3.97;3.50;;;18.40;42.10;;;;;;5116504;28;20504;-56
2022/01/12 00:11:39;;;;;;;3.47;3.17;;;18.50;42.10;;;;;;5116745;28;20019;-56
2022/01/12 00:14:05;;;;;;;3.70;3.28;;;18.50;42.00;;;;;;5116823;28;20481;-56
2022/01/12 00:16:31;;;;;;;6.47;3.50;;;18.60;41.90;;;;;;5115096;28;20012;-57
2022/01/12 00:18:57;;;;;;;6.15;3.47;;;18.60;41.60;;;;;;5116888;28;20428;-56
2022/01/12 00:21:24;;;;;;;4.80;3.35;;;18.70;41.50;;;;;;5115601;28;20099;-55
2022/01/12 00:23:50;;;;;;;4.32;3.53;;;18.80;41.40;;;;;;5114834;28;20510;-56
2022/01/12 00:34:25;;;;;;;3.88;2.95;;;19.00;41.00;;;;;;5116320;28;20135;-56
2022/01/12 00:36:51;;;;;;;4.82;3.10;;;19.10;41.00;;;;;;5116787;28;20501;-56
2022/01/12 00:39:17;;;;;;;4.32;3.13;;;19.10;40.80;;;;;;5114959;28;20027;-56
2022/01/12 00:41:43;;;;;;;4.63;3.63;;;19.10;40.70;;;;;;5115184;28;20115;-56
2022/01/12 00:44:10;;;;;;;4.40;3.33;;;19.10;40.70;;;;;;5116358;28;20496;-56
2022/01/12 00:46:38;;;;;;;5.93;3.13;;;19.20;40.70;;;;;;5115701;28;20012;-56
2022/01/12 00:49:03;;;;;;;4.32;3.08;;;19.20;40.60;;;;;;5116037;28;20057;-56
2022/01/12 00:51:33;;;;;;;3.30;3.00;;;19.20;40.60;;;;;;5116065;28;20028;-56
2022/01/12 00:54:00;;;;;;;3.67;3.00;;;19.20;40.50;;;;;;5115881;28;20015;-56
2022/01/12 00:56:26;;;;;;;4.05;3.33;;;19.30;40.50;;;;;;5114872;28;20024;-56
2022/01/12 00:58:52;;;;;;;3.83;3.30;;;19.30;41.00;;;;;;5116335;28;20015;-56
2022/01/12 01:01:21;;;;;;;6.88;3.58;;;19.30;40.40;;;;;;5116714;28;20032;-56
2022/01/12 01:03:48;;;;;;;4.25;3.30;;;19.30;40.40;;;;;;5120399;28;20016;-56
2022/01/12 01:06:14;;;;;;;4.97;3.10;;;19.40;40.40;;;;;;5120047;28;20538;-56
2022/01/12 01:08:40;;;;;;;3.88;3.22;;;19.40;40.40;;;;;;5119094;28;20129;-56
2022/01/12 01:11:06;;;;;;;5.05;3.33;;;19.40;40.40;;;;;;5120242;28;20030;-58
2022/01/12 01:13:43;;;;;;;4.07;2.95;;;19.40;40.40;;;;;;5119705;28;20016;-56
2022/01/12 01:16:17;;;;;;;3.70;3.33;;;19.40;40.40;;;;;;5119870;28;20023;-58
2022/01/12 01:26:57;;;;;;;3.13;2.83;;;19.50;40.30;;;;;;5120008;28;20130;-57
2022/01/12 01:29:23;;;;;;;3.33;2.88;;;19.50;40.30;;;;;;5119870;28;20015;-57
2022/01/12 01:31:49;;;;;;;3.83;3.05;;;19.50;40.30;;;;;;5120080;28;20030;-57
2022/01/12 01:34:15;;;;;;;5.40;3.40;;;19.50;40.30;;;;;;5119669;28;20034;-57
2022/01/12 01:36:55;;;;;;;3.20;2.90;;;19.50;40.30;;;;;;5119986;28;20069;-57
2022/01/12 01:39:23;;;;;;;4.82;3.22;;;19.60;40.30;;;;;;5119248;28;20055;-57
2022/01/12 01:42:03;;;;;;;3.78;2.85;;;19.60;40.30;;;;;;5119541;28;20023;-57
2022/01/12 01:55:10;;;;;;;3.40;2.85;;;19.60;40.20;;;;;;5119507;28;20027;-57
2022/01/12 01:57:36;;;;;;;3.47;2.95;;;19.60;40.20;;;;;;5119516;28;20454;-57
2022/01/12 02:00:07;;;;;;;3.20;2.80;;;19.70;40.30;;;;;;5118841;28;20091;-57
2022/01/12 02:02:33;;;;;;;3.97;3.28;;;19.70;40.30;;;;;;5119342;28;20047;-58
2022/01/12 02:04:59;;;;;;;3.95;3.05;;;19.70;40.20;;;;;;5117218;28;20016;-57
2022/01/12 02:07:25;;;;;;;3.58;3.10;;;19.70;40.20;;;;;;5118483;28;20112;-56
2022/01/12 02:09:51;;;;;;;3.65;3.15;;;19.70;40.20;;;;;;5117515;28;20474;-56
2022/01/12 02:12:24;;;;;;;3.88;3.05;;;19.70;40.20;;;;;;5116973;28;20045;-56
2022/01/12 02:14:52;;;;;;;4.18;3.30;;;19.70;40.20;;;;;;5117863;28;20383;-61
2022/01/12 02:17:22;;;;;;;3.47;3.00;;;19.70;40.20;;;;;;5118366;28;20099;-57
2022/01/12 02:20:12;;;;;;;3.40;2.88;;;19.80;40.20;;;;;;5116828;28;20359;-56
2022/01/12 02:35:15;;;;;;;3.08;2.78;;;19.80;40.20;;;;;;5117414;28;20501;-57
2022/01/12 02:36:33;;;;;;;5.45;3.30;;;19.80;40.20;;;;;;5117800;28;20110;-56
2022/01/12 02:41:45;;;;;;;3.17;2.83;;;19.90;40.20;;;;;;5116666;28;20060;-57
2022/01/12 02:55:01;;;;;;;3.53;3.10;;;19.90;40.80;;;;;;5116970;28;20031;-57
2022/01/12 02:57:27;;;;;;;4.88;3.10;;;19.90;40.20;;;;;;5116534;28;20026;-56
2022/01/12 03:00:14;;;;;;;3.47;2.80;;;19.90;40.20;;;;;;5117071;28;20098;-57
2022/01/12 03:02:42;;;;;;;3.58;2.97;;;19.90;40.20;;;;;;5118680;28;20047;-57
2022/01/12 03:07:38;;;;;;;3.85;3.10;;;19.90;40.20;;;;;;5118723;28;20111;-56
2022/01/12 03:10:05;;;;;;;4.22;3.33;;;19.90;40.20;;;;;;5118586;28;20027;-55
2022/01/12 03:12:31;;;;;;;3.65;2.92;;;20.00;40.20;;;;;;5118592;28;20023;-58
2022/01/12 03:14:57;;;;;;;3.17;2.70;;;20.00;40.20;;;;;;5117254;28;20016;-58
2022/01/12 03:17:23;;;;;;;3.25;2.95;;;20.00;40.10;;;;;;5117178;28;20019;-56
2022/01/12 03:19:49;;;;;;;3.67;3.03;;;20.00;40.10;;;;;;5116439;28;20033;-54
2022/01/12 03:22:15;;;;;;;3.13;2.78;;;20.10;40.00;;;;;;5117225;28;20482;-56
2022/01/12 03:24:42;;;;;;;4.55;3.05;;;20.10;39.90;;;;;;5116773;28;20026;-56
2022/01/12 03:27:13;;;;;;;3.22;2.92;;;20.20;39.80;;;;;;5099798;28;20031;-56
2022/01/12 03:29:42;;;;;;;3.25;2.95;;;20.20;39.70;;;;;;5116143;28;20020;-56
2022/01/12 03:32:10;;;;;;;4.00;3.00;;;20.30;39.70;;;;;;5115612;28;20016;-55
2022/01/12 03:34:37;;;;;;;3.75;3.17;;;20.40;39.60;;;;;;5117091;28;20016;-54
2022/01/12 03:37:28;;;;;;;3.00;2.70;;;20.40;39.50;;;;;;5116938;28;20046;-56
2022/01/12 03:39:54;;;;;;;4.07;3.13;;;20.50;39.40;;;;;;5115662;28;20016;-53
2022/01/12 03:42:20;;;;;;;3.60;3.30;;;20.50;39.30;;;;;;5115591;28;20020;-54
2022/01/12 03:44:46;;;;;;;3.70;3.25;;;20.60;39.20;;;;;;5114030;28;20028;-54
2022/01/12 03:47:11;;;;;;;3.95;3.00;;;20.60;39.10;;;;;;5115705;28;20035;-54
2022/01/12 03:49:37;;;;;;;3.60;3.30;;;20.70;39.10;;;;;;5115606;28;20050;-55
2022/01/12 03:52:04;;;;;;;3.42;3.13;;;20.70;39.10;;;;;;5115325;28;20439;-55
2022/01/12 03:54:30;;;;;;;3.75;2.67;;;20.80;39.00;;;;;;5097244;28;20023;-54
2022/01/12 03:56:58;;;;;;;3.55;3.20;;;20.80;38.90;;;;;;5115536;28;20020;-54
2022/01/12 03:59:24;;;;;;;3.60;3.30;;;20.90;38.80;;;;;;5115730;28;20020;-55
2022/01/12 04:01:50;;;;;;;4.20;3.17;;;20.90;38.70;;;;;;5115976;28;20032;-58
2022/01/12 04:04:23;;;;;;;2.90;2.60;;;21.00;38.70;;;;;;5116124;28;20004;-55
2022/01/12 04:09:32;;;;;;;3.90;3.17;;;21.10;38.60;;;;;;5116433;28;20414;-55
2022/01/12 04:11:59;;;;;;;4.25;3.30;;;21.20;38.50;;;;;;5115219;28;20020;-56
2022/01/12 04:14:25;;;;;;;4.28;3.35;;;21.20;38.40;;;;;;5116203;28;20494;-56
2022/01/12 04:16:51;;;;;;;4.85;3.13;;;21.20;38.30;;;;;;5116506;28;20019;-56
2022/01/12 04:19:17;;;;;;;3.28;2.80;;;21.30;38.90;;;;;;5116082;28;20018;-55
2022/01/12 04:21:47;;;;;;;3.80;2.95;;;21.30;38.30;;;;;;5114762;28;20024;-56
2022/01/12 04:24:13;;;;;;;3.35;3.05;;;21.40;38.20;;;;;;5114877;28;20363;-56
2022/01/12 04:26:45;;;;;;;3.22;2.90;;;21.50;38.20;;;;;;5115632;28;20016;-56
2022/01/12 04:29:11;;;;;;;5.97;3.20;;;21.50;38.00;;;;;;5115990;28;20020;-55
2022/01/12 04:31:37;;;;;;;4.40;3.33;;;21.50;38.00;;;;;;5114107;28;20026;-55
2022/01/12 04:34:04;;;;;;;3.97;3.13;;;21.60;38.00;;;;;;5116480;28;20047;-56
2022/01/12 04:36:31;;;;;;;3.80;3.15;;;21.70;38.00;;;;;;5114985;28;20023;-55
2022/01/12 04:38:57;;;;;;;3.17;2.88;;;21.70;37.90;;;;;;5115843;28;20091;-54
2022/01/12 04:41:24;;;;;;;3.45;2.97;;;21.70;37.80;;;;;;5115056;28;20591;-54
2022/01/12 04:43:50;;;;;;;4.45;2.97;;;21.80;37.80;;;;;;5113949;28;20089;-55
2022/01/12 04:51:08;;;;;;;4.07;3.15;;;21.90;37.60;;;;;;5113312;28;20024;-53
2022/01/12 04:53:34;;;;;;;3.40;2.95;;;21.90;37.60;;;;;;5114690;28;20516;-53
2022/01/12 04:55:59;;;;;;;3.30;3.00;;;22.00;37.60;;;;;;5113123;28;20492;-55
2022/01/12 04:58:25;;;;;;;5.53;3.33;;;22.00;37.50;;;;;;5114774;28;20030;-55
2022/01/12 05:00:52;;;;;;;3.78;3.38;;;22.00;37.40;;;;;;5113428;28;20462;-54
2022/01/12 05:13:58;;;;;;;4.38;3.30;;;22.20;37.20;;;;;;5114319;28;20030;-55
2022/01/12 05:16:24;;;;;;;3.10;2.80;;;22.30;37.30;;;;;;5113808;28;20027;-55
2022/01/12 05:18:51;;;;;;;3.47;3.13;;;22.30;37.10;;;;;;5114184;28;20090;-54
2022/01/12 05:21:17;;;;;;;3.10;2.75;;;22.30;37.10;;;;;;5113622;28;20084;-55
2022/01/12 05:23:43;;;;;;;3.35;3.05;;;22.40;37.10;;;;;;5114020;28;20020;-55
2022/01/12 05:26:09;;;;;;;3.78;3.08;;;22.40;37.00;;;;;;5113054;28;20095;-55
2022/01/12 05:28:38;;;;;;;3.35;3.08;;;22.50;37.10;;;;;;5114245;28;20035;-60
2022/01/12 05:31:04;;;;;;;3.72;3.10;;;22.50;37.00;;;;;;5114122;28;20038;-55
2022/01/12 05:33:30;;;;;;;4.38;3.05;;;22.60;37.00;;;;;;5114186;28;20015;-55
2022/01/12 05:35:57;;;;;;;3.20;2.92;;;22.50;36.90;;;;;;5113918;28;20390;-55
2022/01/12 05:38:24;;;;;;;3.60;3.30;;;22.60;36.90;;;;;;5114287;28;20040;-55
2022/01/12 05:40:52;;;;;;;3.80;3.22;;;22.60;36.90;;;;;;5113912;28;20419;-55
2022/01/12 05:43:29;;;;;;;3.65;3.35;;;22.60;36.90;;;;;;5113613;28;20004;-56
2022/01/12 05:46:09;;;;;;;3.30;3.00;;;22.60;37.00;;;;;;5112873;28;20083;-56
2022/01/12 05:51:25;;;;;;;3.90;3.55;;;22.50;37.10;;;;;;5087704;27;20031;-55
2022/01/12 05:53:51;;;;;;;3.80;3.40;;;22.60;37.10;;;;;;5116219;28;20501;-54
2022/01/12 05:56:17;;;;;;;3.40;3.10;;;22.60;37.10;;;;;;5117922;28;20034;-55
2022/01/12 05:58:42;;;;;;;3.92;3.53;;;22.60;37.10;;;;;;5117659;28;20065;-55
2022/01/12 06:01:08;;;;;;;3.58;3.25;;;22.70;37.10;;;;;;5117322;28;20015;-54
2022/01/12 06:03:34;;;;;;;4.00;3.35;;;22.70;37.00;;;;;;5115736;28;20053;-56
2022/01/12 06:06:00;;;;;;;3.47;3.10;;;22.70;37.00;;;;;;5116282;28;20012;-56
2022/01/12 06:08:26;;;;;;;3.45;3.05;;;22.80;37.00;;;;;;5117024;28;20039;-55
2022/01/12 06:10:52;;;;;;;3.50;3.20;;;22.80;37.00;;;;;;5115885;28;20087;-56
2022/01/12 06:13:18;;;;;;;3.25;2.95;;;22.80;37.00;;;;;;5117063;28;20038;-55
2022/01/12 06:15:44;;;;;;;3.20;2.90;;;22.80;37.00;;;;;;5116926;28;20043;-55
2022/01/12 06:18:10;;;;;;;3.13;2.83;;;22.90;37.50;;;;;;5116150;28;20435;-55
2022/01/12 06:20:36;;;;;;;3.03;2.72;;;22.90;36.90;;;;;;5115644;28;20049;-55
2022/01/12 06:23:02;;;;;;;3.63;3.20;;;22.90;36.90;;;;;;5116985;28;20031;-56
2022/01/12 06:25:28;;;;;;;3.25;2.90;;;22.90;36.80;;;;;;5116778;28;20012;-56
2022/01/12 06:27:58;;;;;;;3.92;3.45;;;23.00;36.90;;;;;;5117128;28;20377;-58
2022/01/12 06:32:53;;;;;;;3.47;3.17;;;23.00;36.80;;;;;;5116162;28;20107;-59
2022/01/12 06:35:20;;;;;;;3.30;3.00;;;23.00;36.80;;;;;;5115921;28;20020;-59
2022/01/12 06:37:45;;;;;;;3.67;3.03;;;23.00;36.90;;;;;;5116493;28;20019;-57
2022/01/12 06:40:12;;;;;;;3.20;2.90;;;23.00;36.90;;;;;;5116435;28;20027;-60
2022/01/12 06:42:38;;;;;;;3.50;3.15;;;23.00;37.00;;;;;;5116590;28;20008;-59
2022/01/12 06:45:05;;;;;;;3.50;3.20;;;23.00;37.00;;;;;;5116372;28;20031;-58
2022/01/12 06:47:31;;;;;;;3.80;3.40;;;23.00;37.00;;;;;;5116662;28;20008;-58
2022/01/12 06:49:57;;;;;;;3.72;3.08;;;23.00;37.00;;;;;;5116954;28;20026;-58
2022/01/12 06:52:23;;;;;;;3.97;3.10;;;23.00;36.90;;;;;;5115436;28;20118;-57
2022/01/12 06:54:49;;;;;;;3.35;3.05;;;23.00;36.90;;;;;;5116614;28;20049;-58
2022/01/12 06:57:16;;;;;;;3.20;2.90;;;23.00;36.90;;;;;;5116391;28;20051;-58
2022/01/12 06:59:42;;;;;;;3.50;3.20;;;23.10;37.00;;;;;;5115879;28;20069;-58
2022/01/12 07:02:08;;;;;;;3.60;3.30;;;23.10;36.90;;;;;;5116594;28;20103;-58
2022/01/12 07:04:35;;;;;;;4.70;2.92;;;23.10;36.90;;;;;;5114282;28;20027;-58
2022/01/12 07:07:01;;;;;;;3.33;2.97;;;23.10;36.90;;;;;;5115064;28;20030;-58
2022/01/12 07:09:27;;;;;;;3.50;3.20;;;23.20;36.90;;;;;;5114589;28;20038;-58
2022/01/12 07:11:53;;;;;;;4.40;3.45;;;23.20;36.90;;;;;;5114500;28;20481;-58
2022/01/12 07:14:19;;;;;;;5.80;3.15;;;23.20;36.90;;;;;;5114430;28;20043;-58
2022/01/12 07:16:45;;;;;;;5.95;3.30;;;23.20;36.80;;;;;;5112902;28;20045;-58
2022/01/12 07:19:11;;;;;;;3.58;3.28;;;23.20;36.80;;;;;;5113019;28;20016;-57
2022/01/12 07:21:37;;;;;;;3.60;3.30;;;23.30;36.90;;;;;;5112052;28;20028;-57
2022/01/12 07:24:05;;;;;;;10.68;4.90;;;23.30;36.80;;;;;;5112626;28;20053;-58
2022/01/12 07:26:31;;;;;;;9.05;4.22;;;23.30;37.30;;;;;;5112615;28;20115;-60
2022/01/12 07:28:57;;;;;;;8.60;4.22;;;23.30;36.90;;;;;;5094497;28;20047;-58
2022/01/12 07:31:26;;;;;;;9.50;4.88;;;23.30;37.50;;;;;;5113443;28;20028;-58
2022/01/12 07:33:54;;;;;;;10.40;4.80;;;23.40;38.30;;;;;;5111837;28;20016;-59
2022/01/12 07:36:20;;;;;;;13.30;7.55;;;23.50;39.30;;;;;;5112224;28;20024;-58
2022/01/12 07:38:49;;;;;;;10.13;7.32;;;23.60;37.00;;;;;;5112905;28;20020;-60
2022/01/12 07:41:15;;;;;;;10.60;9.50;;;23.60;36.20;;;;;;5112662;28;20073;-60
2022/01/12 07:43:41;;;;;;;14.27;10.65;;;23.50;35.50;;;;;;5111476;28;20012;-59
2022/01/12 07:46:11;;;;;;;15.65;10.50;;;23.50;34.90;;;;;;5113125;28;20011;-61
2022/01/12 07:48:37;;;;;;;14.98;11.45;;;23.40;34.20;;;;;;5113143;28;20019;-59
2022/01/12 07:51:03;;;;;;;14.88;11.77;;;23.40;34.00;;;;;;5111537;28;20020;-59
2022/01/12 07:53:29;;;;;;;13.25;10.98;;;23.40;33.80;;;;;;5111740;28;20023;-58
2022/01/12 07:55:55;;;;;;;13.20;11.18;;;23.30;33.50;;;;;;5112825;28;20022;-59
2022/01/12 07:58:23;;;;;;;14.38;11.02;;;23.30;33.10;;;;;;5112756;28;20385;-58
2022/01/12 08:00:52;;;;;;;19.98;12.60;;;23.30;32.90;;;;;;5111305;28;20035;-60
2022/01/12 08:03:20;;;;;;;14.88;11.25;;;23.20;32.60;;;;;;5112618;28;20008;-57
2022/01/12 08:05:46;;;;;;;15.43;12.13;;;23.20;32.60;;;;;;5110835;28;20012;-60
2022/01/12 08:08:14;;;;;;;13.68;11.60;;;23.20;32.50;;;;;;5110534;28;20430;-59
2022/01/12 08:10:41;;;;;;;13.63;11.60;;;23.10;32.40;;;;;;5111911;28;20093;-58
2022/01/12 08:13:07;;;;;;;19.42;10.32;;;23.10;32.70;;;;;;5112026;28;20432;-59
2022/01/12 08:15:33;;;;;;;15.35;10.13;;;23.00;32.90;;;;;;5112417;28;20020;-56
2022/01/12 08:18:01;;;;;;;24.90;17.02;;;22.90;33.20;;;;;;5112904;28;20090;-56
2022/01/12 08:20:28;;;;;;;27.67;20.98;;;21.30;33.50;;;;;;5113874;28;20035;-54
2022/01/12 08:22:56;;;;;;;26.55;21.40;;;17.50;37.90;;;;;;5112653;28;20028;-57
2022/01/12 08:25:22;;;;;;;27.02;21.10;;;16.80;40.00;;;;;;5112477;28;20019;-59
2022/01/12 08:27:48;;;;;;;30.90;22.80;;;16.00;41.60;;;;;;5112113;28;20008;-56
2022/01/12 08:30:19;;;;;;;29.25;22.52;;;15.70;42.60;;;;;;5111611;28;20027;-57
2022/01/12 08:32:48;;;;;;;30.10;21.87;;;14.40;44.80;;;;;;5113192;28;20073;-58
2022/01/12 08:35:17;;;;;;;28.27;21.70;;;14.10;47.20;;;;;;5113001;28;20453;-58
2022/01/12 08:37:43;;;;;;;41.88;25.60;;;13.80;48.40;;;;;;5112420;28;20030;-58
2022/01/12 08:40:11;;;;;;;30.80;22.90;;;13.40;48.90;;;;;;5111100;28;20547;-58
2022/01/12 08:42:36;;;;;;;29.58;22.25;;;13.00;50.00;;;;;;5112593;28;20470;-59
2022/01/12 08:45:04;;;;;;;29.60;22.38;;;12.70;51.20;;;;;;5112802;28;20027;-60
2022/01/12 08:47:29;;;;;;;35.42;22.92;;;12.80;51.50;;;;;;5111743;28;20026;-57
2022/01/12 08:49:55;;;;;;;30.58;22.50;;;12.90;51.40;;;;;;5094538;28;20012;-59
2022/01/12 08:52:30;;;;;;;33.15;22.75;;;12.90;51.20;;;;;;5112454;28;20012;-60
2022/01/12 08:55:00;;;;;;;34.97;21.80;;;12.80;51.50;;;;;;5112711;28;20463;-62
2022/01/12 08:57:29;;;;;;;33.58;23.35;;;12.60;52.00;;;;;;5112116;28;20131;-60
2022/01/12 08:59:56;;;;;;;30.55;22.48;;;12.30;52.70;;;;;;5112054;28;20112;-60
2022/01/12 09:02:22;;;;;;;29.35;20.48;;;12.30;52.70;;;;;;5111004;28;20393;-60
2022/01/12 09:04:48;;;;;;;27.15;18.10;;;13.50;51.30;;;;;;5112131;28;20110;-58
2022/01/12 09:07:15;;;;;;;23.67;16.70;;;14.80;47.90;;;;;;5113325;28;20024;-59
2022/01/12 09:09:41;;;;;;;22.10;15.52;;;15.90;45.00;;;;;;5113858;28;20107;-58
2022/01/12 09:12:08;;;;;;;25.08;18.40;;;16.80;42.80;;;;;;5112538;28;20096;-59
2022/01/12 09:14:36;;;;;;;25.70;19.67;;;16.10;42.80;;;;;;5110535;28;20020;-62
2022/01/12 09:17:02;;;;;;;29.75;20.58;;;15.90;43.50;;;;;;5111343;28;20020;-59
2022/01/12 09:19:27;;;;;;;35.78;21.63;;;14.90;45.40;;;;;;5092737;28;20016;-59
2022/01/12 09:21:54;;;;;;;32.20;21.88;;;14.20;48.00;;;;;;5111431;28;20134;-60
2022/01/12 09:24:20;;;;;;;31.17;22.33;;;14.70;49.10;;;;;;5114552;28;20016;-61
2022/01/12 09:26:53;;;;;;;31.48;22.17;;;15.40;48.10;;;;;;5115596;28;20442;-60
2022/01/12 09:29:20;;;;;;;36.75;23.45;;;15.70;49.20;;;;;;5115729;28;20112;-61
2022/01/12 09:31:53;;;;;;;32.03;24.00;;;16.20;48.10;;;;;;5115845;28;20027;-58
2022/01/12 09:34:19;;;;;;;32.72;23.35;;;16.50;47.10;;;;;;5115564;28;20518;-60
2022/01/12 09:36:45;;;;;;;31.73;24.20;;;16.80;46.40;;;;;;5097571;28;20050;-58
2022/01/12 09:39:11;;;;;;;33.28;22.55;;;17.00;46.30;;;;;;5115587;28;20027;-59
2022/01/12 09:41:36;;;;;;;30.63;24.40;;;17.20;45.90;;;;;;5115653;28;20027;-59
2022/01/12 09:44:03;;;;;;;63.70;26.05;;;17.20;45.60;;;;;;5114176;28;20037;-59
2022/01/12 09:46:29;;;;;;;42.67;25.50;;;17.20;44.70;;;;;;5114686;28;20039;-59
2022/01/12 09:48:57;;;;;;;46.35;26.90;;;17.20;45.00;;;;;;5115633;27;20470;-60
2022/01/12 09:51:23;;;;;;;41.53;25.60;;;17.30;45.20;;;;;;5113895;28;20016;-58
2022/01/12 09:53:49;;;;;;;39.60;25.17;;;17.30;44.80;;;;;;5113243;28;20030;-58
2022/01/12 09:56:18;;;;;;;40.22;24.48;;;17.30;44.20;;;;;;5096578;28;20126;-59
2022/01/12 09:58:47;;;;;;;42.13;24.90;;;17.40;44.30;;;;;;5114732;28;20538;-59
2022/01/12 10:01:19;;;;;;;40.67;28.23;;;17.50;44.30;;;;;;5114493;28;20032;-61
2022/01/12 10:03:45;;;;;;;41.30;25.70;;;16.60;44.80;;;;;;5097115;28;20019;-59
2022/01/12 10:06:14;;;;;;;48.55;28.15;;;16.30;46.80;;;;;;5114003;28;20019;-59
2022/01/12 10:08:40;;;;;;;56.78;29.90;;;16.40;44.80;;;;;;5112439;28;20043;-59
2022/01/12 10:11:13;;;;;;;52.05;29.90;;;15.70;45.30;;;;;;5114336;28;20023;-60
2022/01/12 10:13:42;;;;;;;57.53;27.77;;;14.70;47.90;;;;;;5114996;28;20019;-59
2022/01/12 10:16:15;;;;;;;48.13;29.40;;;15.00;48.60;;;;;;5114859;28;20109;-59
2022/01/12 10:18:51;;;;;;;45.95;28.33;;;14.50;49.80;;;;;;5114810;28;20065;-59
2022/01/12 10:21:26;;;;;;;55.45;31.92;;;14.90;49.80;;;;;;5114649;28;20020;-60
2022/01/12 10:24:04;;;;;;;49.00;30.05;;;14.70;50.10;;;;;;5114852;28;20118;-60
2022/01/12 10:26:39;;;;;;;52.80;30.75;;;14.80;49.30;;;;;;5115052;28;20019;-60
2022/01/12 10:29:11;;;;;;;47.20;28.45;;;14.50;50.30;;;;;;5114704;28;20030;-60
2022/01/12 10:31:59;;;;;;;55.33;30.45;;;15.20;50.50;;;;;;5114763;28;20679;-58
2022/01/12 10:34:27;;;;;;;55.50;30.25;;;14.70;49.70;;;;;;5114034;28;20126;-60
2022/01/12 10:36:55;;;;;;;51.95;30.67;;;14.20;51.50;;;;;;5114537;28;20019;-58
2022/01/12 10:39:31;;;;;;;51.85;29.95;;;14.80;51.10;;;;;;5114195;28;20382;-59
2022/01/12 10:42:02;;;;;;;54.75;30.63;;;15.10;50.10;;;;;;5114113;28;20474;-59
2022/01/12 10:44:36;;;;;;;54.13;31.10;;;14.60;50.70;;;;;;5114855;28;20011;-59
2022/01/12 10:47:17;;;;;;;54.22;30.95;;;14.30;51.10;;;;;;5114269;28;20095;-60
2022/01/12 10:49:52;;;;;;;;;;;14.30;52.80;;;;;;5114522;28;20072;-59
2022/01/12 10:52:18;;;;;;;60.30;29.83;;;15.10;51.00;;;;;;5113429;28;19942;-59
2022/01/12 10:54:51;;;;;;;51.33;27.15;;;15.70;49.70;;;;;;5113434;28;20019;-60
2022/01/12 10:57:21;;;;;;;52.65;27.67;;;16.10;48.80;;;;;;5111546;28;20011;-60
2022/01/12 11:00:08;;;;;;;49.20;25.30;;;16.50;47.90;;;;;;5114114;28;20023;-60
2022/01/12 11:02:34;;;;;;;52.08;24.63;;;17.20;46.50;;;;;;5103521;27;20031;-60
2022/01/12 11:05:00;;;;;;;53.05;22.48;;;17.70;45.10;;;;;;5114812;28;20023;-61
2022/01/12 11:07:27;;;;;;;45.03;22.95;;;18.10;43.80;;;;;;5115062;28;20051;-60
2022/01/12 11:09:56;;;;;;;46.55;23.27;;;18.50;43.00;;;;;;5114800;28;20473;-61
2022/01/12 11:12:22;;;;;;;41.88;20.73;;;18.70;42.20;;;;;;5115860;28;20326;-61
2022/01/12 11:14:49;;;;;;;48.97;20.67;;;18.90;41.70;;;;;;5116378;28;20003;-59
2022/01/12 11:17:16;;;;;;;47.10;21.45;;;19.00;41.30;;;;;;5116493;28;20043;-61
2022/01/12 11:20:04;;;;;;;40.58;19.85;;;19.20;40.90;;;;;;5116060;28;20047;-60
2022/01/12 11:22:51;;;;;;;37.90;19.05;;;19.30;40.50;;;;;;5115076;28;20392;-61
2022/01/12 11:25:38;;;;;;;45.65;19.52;;;19.40;40.20;;;;;;5115461;28;20373;-60
2022/01/12 11:28:14;;;;;;;36.30;18.95;;;19.60;39.80;;;;;;5115920;28;20083;-60
2022/01/12 11:30:50;;;;;;;37.65;17.30;;;19.70;39.60;;;;;;5116751;28;20424;-60
2022/01/12 11:33:17;;;;;;;31.20;16.55;;;19.60;39.60;;;;;;5116361;28;20026;-61
2022/01/12 11:35:46;;;;;;;29.65;16.92;;;19.60;39.50;;;;;;5117382;28;20102;-60
2022/01/12 11:38:26;;;;;;;33.45;17.33;;;19.70;39.40;;;;;;5117021;28;20087;-60
2022/01/12 11:40:55;;;;;;;29.02;15.65;;;19.60;39.40;;;;;;5117262;28;20079;-61
2022/01/12 11:43:29;;;;;;;29.25;17.13;;;19.70;39.30;;;;;;5116616;28;20119;-60
2022/01/12 11:46:02;;;;;;;26.05;15.77;;;19.60;39.20;;;;;;5116757;28;20031;-62
2022/01/12 11:48:40;;;;;;;27.92;16.88;;;19.60;39.20;;;;;;5116923;28;20012;-61
2022/01/12 11:51:07;;;;;;;26.08;15.27;;;19.60;39.20;;;;;;5116769;28;20015;-61
2022/01/12 11:53:43;;;;;;;28.75;15.60;;;19.50;39.10;;;;;;5116715;28;20039;-60
2022/01/12 11:56:18;;;;;;;29.65;16.08;;;19.50;39.20;;;;;;5116477;28;20019;-61
2022/01/12 11:59:12;;;;;;;28.67;16.13;;;19.50;39.30;;;;;;5116632;28;20019;-61
2022/01/12 12:01:44;;;;;;;26.55;16.55;;;19.40;39.30;;;;;;5114718;28;20153;-60
2022/01/12 12:04:10;;;;;;;26.42;16.10;;;19.40;39.40;;;;;;5115911;28;20012;-61
2022/01/12 12:06:35;;;;;;;25.08;15.50;;;19.30;39.60;;;;;;5116487;28;20020;-61
2022/01/12 12:09:17;;;;;;;24.90;16.17;;;19.20;39.70;;;;;;5115250;28;20457;-60
2022/01/12 12:11:48;;;;;;;24.80;15.45;;;19.20;39.70;;;;;;5114194;28;20020;-60
2022/01/12 12:14:16;;;;;;;26.08;16.60;;;19.10;39.90;;;;;;5114576;28;20011;-60
2022/01/12 12:16:42;;;;;;;22.80;15.45;;;19.10;40.00;;;;;;5114284;28;20026;-61
2022/01/12 12:19:07;;;;;;;24.17;16.23;;;19.10;39.80;;;;;;5114157;28;20024;-60
2022/01/12 12:21:34;;;;;;;31.48;16.70;;;19.10;39.90;;;;;;5114848;28;20031;-59
2022/01/12 12:24:13;;;;;;;23.00;15.43;;;19.00;39.90;;;;;;5113866;28;20541;-58
2022/01/12 12:26:46;;;;;;;27.08;15.38;;;19.00;40.00;;;;;;5115244;28;20015;-60
2022/01/12 12:29:15;;;;;;;22.30;15.18;;;18.90;40.20;;;;;;5113641;28;20031;-61
2022/01/12 12:31:46;;;;;;;24.88;15.75;;;18.90;40.80;;;;;;5115309;28;20023;-59
2022/01/12 12:34:12;;;;;;;20.83;14.90;;;18.80;40.40;;;;;;5115346;28;20094;-60
2022/01/12 12:36:38;;;;;;;25.50;15.90;;;18.70;40.60;;;;;;5114737;28;20495;-59
2022/01/12 12:39:11;;;;;;;22.35;14.57;;;18.60;40.80;;;;;;5113830;28;20481;-59
2022/01/12 12:41:42;;;;;;;21.95;15.30;;;18.50;41.00;;;;;;5115081;28;20046;-59
2022/01/12 12:44:24;;;;;;;23.50;15.75;;;18.40;41.10;;;;;;5114955;28;20008;-58
2022/01/12 12:46:51;;;;;;;19.58;15.20;;;18.40;41.30;;;;;;5115123;28;20084;-59
2022/01/12 12:49:17;;;;;;;22.92;14.85;;;18.40;41.30;;;;;;5114782;28;20099;-59
2022/01/12 12:51:44;;;;;;;23.13;15.60;;;18.40;41.40;;;;;;5114194;28;20030;-58
2022/01/12 12:54:13;;;;;;;18.45;14.02;;;18.30;41.50;;;;;;5113944;28;20036;-59
2022/01/12 12:56:42;;;;;;;22.30;14.45;;;18.20;41.50;;;;;;5115158;28;20083;-59
2022/01/12 12:59:08;;;;;;;20.67;15.18;;;18.20;41.60;;;;;;5118247;28;20492;-59
2022/01/12 13:01:34;;;;;;;20.92;14.98;;;18.20;41.70;;;;;;5118458;28;20041;-59
2022/01/12 13:04:02;;;;;;;19.70;15.07;;;18.10;41.80;;;;;;5119106;28;20018;-59
2022/01/12 13:06:30;;;;;;;22.38;15.00;;;18.10;41.90;;;;;;5119861;28;20162;-59
2022/01/12 13:09:04;;;;;;;23.38;15.25;;;18.10;42.00;;;;;;5119140;28;20036;-59
2022/01/12 13:11:30;;;;;;;22.80;14.95;;;18.00;42.00;;;;;;5119502;28;20020;-59
2022/01/12 13:13:57;;;;;;;19.50;15.07;;;18.00;42.10;;;;;;5119098;28;20016;-59
2022/01/12 13:16:26;;;;;;;20.58;14.75;;;18.00;42.20;;;;;;5119911;28;20043;-59
2022/01/12 13:18:51;;;;;;;20.15;14.80;;;18.00;42.20;;;;;;5119432;28;20534;-59
2022/01/12 13:21:17;;;;;;;18.38;14.50;;;17.90;42.30;;;;;;5118514;28;20031;-59
2022/01/12 13:23:49;;;;;;;19.65;14.02;;;17.90;42.30;;;;;;5118637;28;20024;-58
2022/01/12 13:26:17;;;;;;;22.00;15.00;;;17.90;42.40;;;;;;5119245;28;20533;-60
2022/01/12 13:28:44;;;;;;;18.08;14.27;;;17.80;42.50;;;;;;5119315;28;20012;-62
2022/01/12 13:31:12;;;;;;;19.45;14.18;;;17.80;42.50;;;;;;5119816;28;20019;-59
2022/01/12 13:33:45;;;;;;;20.10;13.73;;;17.80;42.50;;;;;;5118636;28;20016;-59
2022/01/12 13:36:15;;;;;;;18.48;13.95;;;17.80;42.60;;;;;;5119111;28;20016;-62
2022/01/12 13:38:47;;;;;;;20.23;13.65;;;17.80;42.70;;;;;;5118943;28;20024;-59
2022/01/12 13:41:15;;;;;;;18.17;14.40;;;17.70;42.70;;;;;;5118045;28;20023;-59
2022/01/12 13:43:43;;;;;;;20.23;13.93;;;17.70;42.80;;;;;;5118356;28;20014;-58
2022/01/12 13:46:15;;;;;;;19.42;14.23;;;17.70;42.80;;;;;;5119709;28;20095;-59
2022/01/12 13:48:53;;;;;;;19.92;14.50;;;17.70;42.90;;;;;;5118988;28;20019;-59
2022/01/12 13:51:26;;;;;;;16.75;13.98;;;17.60;42.80;;;;;;5118587;28;20049;-59
2022/01/12 13:54:01;;;;;;;17.30;13.48;;;17.60;42.90;;;;;;5118832;28;20023;-59
2022/01/12 13:56:54;;;;;;;17.73;14.13;;;17.60;42.90;;;;;;5118606;28;20016;-59
2022/01/12 13:59:20;;;;;;;19.77;14.65;;;17.60;43.00;;;;;;5115507;27;20031;-58
2022/01/12 14:01:46;;;;;;;16.65;13.85;;;17.60;43.00;;;;;;5118598;28;20062;-59
2022/01/12 14:04:38;;;;;;;19.80;14.57;;;17.60;43.00;;;;;;5118480;28;20065;-60